Data for 10/26/2009

Time Sea-Level Adjusted Pressure Absolute Pressure Temperature Relative Humidity Dew Point   
(mb) (inHg) (mb) (inHg) (C) (F) (%) (C) (F)
00:05 1021 30.15 850 25.1 -0.2 31.7 44 -10.9 12.4
00:10 1021 30.15 850 25.1 -0.2 31.7 46 -10.4 13.2
00:15 1021 30.15 850 25.1 -0.5 31.2 48 -10.2 13.6
00:20 1021 30.15 850 25.1 -0.6 30.9 47 -10.5 13
00:25 1021 30.15 850 25.1 -0.6 30.9 47 -10.5 13
00:30 1021 30.15 850 25.1 -0.5 31.2 45 -11.1 12.1
00:35 1021 30.15 850 25.1 -0.2 31.7 43 -11.2 11.9
00:40 1020 30.12 850 25.1 -0 32 44 -11 12.2
00:45 1020 30.12 850 25.1 -0.2 31.7 44 -11.1 12
00:50 1020 30.12 850 25.1 -0.1 31.7 44 -11.1 12
00:55 1020 30.12 849 25.07 -0.1 31.7 44 -11 12.3
01:00 1020 30.12 849 25.07 -0.2 31.6 44 -11 12.2
01:05 1020 30.12 849 25.07 -0.1 31.7 43 -11.3 11.6
01:10 1020 30.12 849 25.07 0.1 32.2 44 -10.9 12.4
01:15 1020 30.12 849 25.07 0.2 32.3 41 -11.6 11.2
01:20 1020 30.12 849 25.07 0.4 32.8 40 -11.6 11.2
01:25 1020 30.12 849 25.07 0.6 33.1 40 -11.5 11.2
01:30 1020 30.12 849 25.07 0.6 33.1 41 -11.3 11.6
01:35 1020 30.12 849 25.07 0.5 33 41 -11.3 11.7
01:40 1020 30.12 849 25.07 0.4 32.7 42 -11 12.1
01:45 1020 30.12 849 25.07 0.3 32.6 42 -11.1 12
01:50 1020 30.12 849 25.07 0.4 32.7 41 -11.3 11.7
01:55 1020 30.12 849 25.07 0.4 32.7 42 -11.1 12.1
02:00 1020 30.12 849 25.07 0.4 32.8 41 -11.2 11.8
02:05 1019 30.09 849 25.07 0.5 32.8 42 -11.1 12
02:10 1019 30.09 849 25.07 0.5 32.9 42 -11.1 12
02:15 1019 30.09 849 25.07 0.6 33 42 -10.9 12.5
02:20 1019 30.09 848 25.04 0.7 33.3 40 -11.4 11.5
02:25 1019 30.09 848 25.04 0.9 33.6 41 -10.9 12.3
02:30 1019 30.09 848 25.04 0.9 33.6 40 -11.3 11.6
02:35 1019 30.09 848 25.04 1.1 34 39 -11.2 11.8
02:40 1019 30.09 848 25.04 1.1 34 39 -11.3 11.7
02:45 1019 30.09 848 25.04 1.3 34.3 38 -11.6 11.2
02:50 1019 30.09 848 25.04 1.3 34.4 39 -11.3 11.7
02:55 1019 30.09 848 25.04 1.3 34.3 39 -11.2 11.9
03:00 1018 30.06 848 25.04 1.2 34.1 40 -10.9 12.4
03:05 1018 30.06 847 25.01 1 33.8 43 -10.3 13.4
03:10 1018 30.06 847 25.01 0.9 33.5 44 -10 14
03:15 1018 30.06 847 25.01 0.8 33.5 43 -10.5 13.1
03:20 1018 30.06 847 25.01 1 33.8 44 -9.8 14.3
03:25 1018 30.06 847 25.01 1.1 33.9 43 -10 13.9
03:30 1018 30.06 847 25.01 1.1 34.1 42 -10.4 13.3
03:35 1018 30.06 847 25.01 1.3 34.3 41 -10.5 13
03:40 1018 30.06 847 25.01 1.4 34.4 41 -10.4 13.2
03:45 1018 30.06 847 25.01 1.4 34.5 41 -10.6 12.9
03:50 1018 30.06 847 25.01 1.5 34.8 40 -10.8 12.6
03:55 1018 30.06 847 25.01 1.7 35 39 -11 12.2
04:00 1018 30.06 847 25.01 1.9 35.4 38 -11 12.3
04:05 1018 30.06 847 25.01 1.9 35.5 38 -11 12.1
04:10 1018 30.06 847 25.01 2 35.6 38 -11 12.2
04:15 1018 30.06 847 25.01 2.1 35.8 38 -10.7 12.7
04:20 1018 30.06 847 25.01 2.1 35.7 38 -10.7 12.7
04:25 1018 30.06 847 25.01 2 35.7 39 -10.4 13.2
04:30 1018 30.06 847 25.01 2 35.6 39 -10.6 13
04:35 1017 30.03 847 25.01 2 35.7 39 -10.6 13
04:40 1017 30.03 847 25.01 2.1 35.8 38 -10.9 12.4
04:45 1017 30.03 846 24.98 2.2 36 37 -11.1 12.1
04:50 1017 30.03 846 24.98 2.4 36.4 36 -11.2 11.8
04:55 1017 30.03 846 24.98 2.6 36.7 36 -11.1 11.9
05:00 1017 30.03 846 24.98 2.7 36.8 36 -11.1 12.1
05:05 1017 30.03 846 24.98 2.7 36.9 35 -11.2 11.8
05:10 1017 30.03 846 24.98 2.8 37 37 -10.7 12.7
05:15 1017 30.03 846 24.98 2.7 36.9 38 -10.4 13.3
05:20 1017 30.03 846 24.98 2.6 36.7 38 -10.2 13.7
05:25 1017 30.03 846 24.98 2.7 36.9 37 -10.7 12.7
05:30 1017 30.03 846 24.98 2.7 36.8 41 -9.4 15
05:35 1017 30.03 846 24.98 2.7 36.8 37 -10.5 13.1
05:40 1017 30.03 846 24.98 2.9 37.2 41 -9.3 15.3
05:45 1017 30.03 846 24.98 2.5 36.4 45 -8.3 17.1
05:50 1017 30.03 846 24.98 2.2 36 46 -8.2 17.2
05:55 1017 30.03 846 24.98 2.3 36.2 42 -9.2 15.4
06:00 1017 30.03 846 24.98 2.6 36.7 40 -9.6 14.6
06:05 1017 30.03 846 24.98 2.9 37.1 38 -10.3 13.5
06:10 1017 30.03 846 24.98 3.3 37.9 35 -10.9 12.5
06:15 1017 30.03 846 24.98 3.8 38.8 36 -10.1 13.8
06:20 1017 30.03 846 24.98 3.7 38.7 40 -8.6 16.6
06:25 1017 30.03 846 24.98 3.5 38.2 40 -9 15.8
06:30 1017 30.03 846 24.98 3.1 37.6 43 -8.4 16.9
06:35 1017 30.03 846 24.98 2.8 37.1 45 -8.1 17.5
06:40 1017 30.03 846 24.98 3 37.4 47 -7.3 18.8
06:45 1017 30.03 846 24.98 2.9 37.1 42 -8.7 16.4
06:50 1017 30.03 846 24.98 3 37.4 33 -11.9 10.6
06:55 1017 30.03 846 24.98 3.5 38.4 46 -7 19.5
07:00 1017 30.03 846 24.98 3 37.4 44 -8.1 17.5
07:05 1017 30.03 846 24.98 3.1 37.6 39 -9.4 15.1
07:10 1017 30.03 846 24.98 3.4 38.1 38 -9.7 14.5
07:15 1017 30.03 846 24.98 3.4 38.1 39 -9.4 15.2
07:20 1017 30.03 846 24.98 3.4 38.1 41 -8.5 16.7
07:25 1017 30.03 846 24.98 3.3 37.9 42 -8.5 16.6
07:30 1017 30.03 846 24.98 3.6 38.4 38 -9.4 15.1
07:35 1017 30.03 846 24.98 4 39.2 40 -8.6 16.6
07:40 1017 30.03 846 24.98 3.9 39.1 42 -8 17.6
07:45 1017 30.03 846 24.98 4 39.1 40 -8.4 17
07:50 1017 30.03 846 24.98 3.9 39 39 -8.7 16.3
07:55 1017 30.03 846 24.98 4 39.3 41 -8.1 17.5
08:00 1017 30.03 846 24.98 4 39.2 46 -6.5 20.3
08:05 1017 30.03 846 24.98 4 39.1 50 -5.6 21.9
08:10 1017 30.03 846 24.98 4.1 39.4 48 -6 21.1
08:15 1017 30.03 846 24.98 3.9 39 47 -6.5 20.3
08:20 1017 30.03 846 24.98 3.9 39.1 45 -6.9 19.6
08:25 1017 30.03 846 24.98 4.3 39.7 45 -6.5 20.3
08:30 1017 30.03 846 24.98 4.1 39.4 49 -5.8 21.6
08:35 1017 30.03 846 24.98 4.2 39.6 47 -6.2 20.8
08:40 1017 30.03 846 24.98 4.2 39.6 49 -5.7 21.7
08:45 1017 30.03 846 24.98 4.1 39.3 51 -5.2 22.7
08:50 1016 30 845 24.95 3.7 38.7 53 -5 22.9
08:55 1016 30 845 24.95 3.7 38.6 55 -4.5 23.8
09:00 1016 30 845 24.95 3.7 38.7 56 -4.4 24.1
09:05 1016 30 845 24.95 3.9 38.9 54 -4.5 23.9
09:10 1016 30 845 24.95 4.2 39.5 54 -4.4 24.2
09:15 1016 30 845 24.95 4.5 40 54 -4 24.8
09:20 1016 30 845 24.95 4.5 40.2 54 -4 24.8
09:25 1016 30 845 24.95 4.8 40.6 53 -4 24.9
09:30 1016 30 845 24.95 5 41 54 -3.6 25.5
09:35 1016 30 845 24.95 5.2 41.4 53 -3.4 25.8
09:40 1016 30 845 24.95 5.6 42 53 -3.3 26
09:45 1016 30 845 24.95 6.1 43 50 -3.5 25.8
09:50 1015 29.97 845 24.95 6.8 44.2 51 -2.7 27.2
09:55 1015 29.97 845 24.95 7.2 45 49 -2.6 27.3
10:00 1016 30 845 24.95 7.8 46 50 -2 28.5
10:05 1016 30 845 24.95 7.5 45.5 52 -1.7 28.9
10:10 1016 30 845 24.95 7.4 45.4 49 -2.5 27.5
10:15 1015 29.97 845 24.95 7.5 45.5 49 -2.4 27.6
10:20 1015 29.97 844 24.92 8 46.3 50 -1.8 28.8
10:25 1015 29.97 844 24.92 8.5 47.2 46 -2.5 27.6
10:30 1015 29.97 844 24.92 8.7 47.6 45 -2.5 27.4
10:35 1015 29.97 844 24.92 9.1 48.4 46 -1.9 28.5
10:40 1015 29.97 844 24.92 8.6 47.4 47 -1.9 28.5
10:45 1015 29.97 844 24.92 8.2 46.7 48 -2.1 28.2
10:50 1015 29.97 844 24.92 8.4 47.1 46 -2.4 27.6
10:55 1015 29.97 844 24.92 8.3 47 48 -1.9 28.5
11:00 1015 29.97 844 24.92 8.9 48 44 -2.7 27.1
11:05 1015 29.97 844 24.92 10.1 50.3 42 -2.3 27.9
11:10 1014 29.94 844 24.92 11 51.8 39 -2.3 27.9
11:15 1014 29.94 844 24.92 11.2 52.1 40 -1.8 28.8
11:20 1014 29.94 844 24.92 11.2 52.2 40 -1.8 28.7
11:25 1014 29.94 844 24.92 11.1 51.9 40 -1.9 28.5
11:30 1014 29.94 844 24.92 11.1 51.9 40 -1.9 28.5
11:35 1014 29.94 843 24.89 11.8 53.2 38 -1.9 28.6
11:40 1014 29.94 843 24.89 12.4 54.3 37 -1.8 28.8
11:45 1014 29.94 843 24.89 12.8 55.1 36 -1.8 28.8
11:50 1014 29.94 843 24.89 13.2 55.7 37 -1.2 29.8
11:55 1014 29.94 843 24.89 12.6 54.6 37 -1.7 29
12:00 1014 29.94 843 24.89 12.9 55.3 33 -2.8 27
12:05 1013 29.91 843 24.89 12.6 54.7 33 -3.2 26.3
12:10 1013 29.91 842 24.86 13 55.4 33 -2.9 26.8
12:15 1013 29.91 842 24.86 12.8 55 32 -3.3 26.1
12:20 1013 29.91 842 24.86 12.8 55 33 -3.1 26.4
12:25 1013 29.91 842 24.86 12.3 54.1 33 -3.4 25.9
12:30 1013 29.91 842 24.86 12.2 54 33 -3.5 25.8
12:35 1013 29.91 842 24.86 13 55.4 32 -3.1 26.4
12:40 1013 29.91 842 24.86 13.5 56.3 32 -3 26.7
12:45 1012 29.88 842 24.86 13 55.4 32 -3.2 26.3
12:50 1012 29.88 842 24.86 12.6 54.7 33 -3 26.5
12:55 1012 29.88 841 24.83 12.8 55 33 -3 26.6
13:00 1012 29.88 841 24.83 13.4 56.1 32 -2.8 26.9
13:05 1012 29.88 841 24.83 14 57.1 31 -2.9 26.7
13:10 1012 29.88 841 24.83 14.1 57.3 31 -2.6 27.3
13:15 1012 29.88 841 24.83 14.3 57.7 31 -2.5 27.4
13:20 1012 29.88 841 24.83 14.4 57.8 31 -2.6 27.4
13:25 1011 29.85 841 24.83 14.6 58.4 30 -2.5 27.5
13:30 1011 29.85 841 24.83 14.6 58.3 30 -2.7 27.2
13:35 1011 29.85 841 24.83 14.1 57.3 31 -2.7 27.2
13:40 1011 29.85 840 24.81 13.9 57 32 -2.3 27.8
13:45 1011 29.85 840 24.81 13.9 56.9 32 -2.3 27.9
13:50 1011 29.85 840 24.81 13.6 56.4 33 -2.4 27.8
13:55 1011 29.85 840 24.81 13.6 56.4 32 -2.6 27.4
14:00 1011 29.85 840 24.81 13.4 56.2 33 -2.4 27.6
14:05 1011 29.85 840 24.81 13.2 55.8 33 -2.8 27
14:10 1011 29.85 840 24.81 13.1 55.6 33 -2.9 26.9
14:15 1011 29.85 840 24.81 13.2 55.7 33 -2.5 27.5
14:20 1011 29.85 840 24.81 13.5 56.3 33 -2.5 27.5
14:25 1011 29.85 840 24.81 13.4 56.2 33 -2.6 27.4
14:30 1010 29.83 840 24.81 13.3 55.9 34 -2.4 27.8
14:35 1010 29.83 839 24.78 13.2 55.7 34 -2.4 27.6
14:40 1010 29.83 839 24.78 13.1 55.5 33 -2.6 27.3
14:45 1010 29.83 839 24.78 12.9 55.2 34 -2.5 27.5
14:50 1010 29.83 839 24.78 12.7 54.8 34 -2.5 27.4
14:55 1010 29.83 839 24.78 12.4 54.3 34 -3 26.6
15:00 1010 29.83 839 24.78 12.3 54.1 35 -2.8 27
15:05 1010 29.83 839 24.78 12.2 53.9 34 -3 26.6
15:10 1010 29.83 839 24.78 12.1 53.9 34 -3.2 26.2
15:15 1010 29.83 839 24.78 12.3 54.1 34 -3.2 26.2
15:20 1009 29.8 839 24.78 12.4 54.3 32 -3.8 25.2
15:25 1009 29.8 839 24.78 12.2 54 33 -3.5 25.6
15:30 1009 29.8 838 24.75 12.2 54 33 -3.6 25.4
15:35 1009 29.8 838 24.75 12.5 54.4 32 -3.9 25
15:40 1009 29.8 838 24.75 12.7 54.8 31 -3.9 25
15:45 1009 29.8 838 24.75 12.6 54.7 32 -3.6 25.6
15:50 1009 29.8 838 24.75 12.3 54.2 33 -3.3 26.1
15:55 1009 29.8 838 24.75 12.2 54 32 -4 24.9
16:00 1008 29.77 838 24.75 12.2 53.9 33 -3.8 25.2
16:05 1008 29.77 838 24.75 11.9 53.5 33 -3.8 25.2
16:10 1008 29.77 837 24.72 11.8 53.2 33 -3.9 24.9
16:15 1008 29.77 837 24.72 11.7 53 33 -4.1 24.7
16:20 1008 29.77 837 24.72 11.7 53 33 -4.1 24.7
16:25 1008 29.77 837 24.72 11.6 52.9 34 -3.7 25.3
16:30 1008 29.77 837 24.72 11.4 52.5 34 -3.9 25
16:35 1008 29.77 837 24.72 11.6 52.9 32 -4.4 24.1
16:40 1008 29.77 837 24.72 11.8 53.2 33 -4.1 24.6
16:45 1008 29.77 837 24.72 11.8 53.2 32 -4.2 24.4
16:50 1008 29.77 837 24.72 11.9 53.5 32 -4 24.7
16:55 1007 29.74 837 24.72 12.2 54 31 -4.3 24.3
17:00 1007 29.74 837 24.72 12.3 54.1 31 -4.3 24.2
17:05 1007 29.74 836 24.69 12.3 54.1 30 -4.6 23.7
17:10 1007 29.74 836 24.69 12.1 53.8 30 -5 23
17:15 1007 29.74 836 24.69 12.2 53.9 30 -4.8 23.4
17:20 1007 29.74 836 24.69 12.1 53.7 30 -4.9 23.2
17:25 1007 29.74 836 24.69 11.8 53.3 30 -5.1 22.7
17:30 1006 29.71 836 24.69 11.7 53 30 -5.4 22.3
17:35 1006 29.71 836 24.69 11.6 52.9 30 -5.3 22.4
17:40 1006 29.71 835 24.66 11.5 52.6 30 -5.6 22
17:45 1006 29.71 835 24.66 11.4 52.5 30 -5.5 22.1
17:50 1006 29.71 835 24.66 11.4 52.6 29 -6.1 21.1
17:55 1005 29.68 835 24.66 11.6 52.8 29 -6 21.3
18:00 1005 29.68 834 24.63 11.5 52.8 29 -5.9 21.4
18:05 1005 29.68 834 24.63 11.5 52.6 29 -5.8 21.6
18:10 1005 29.68 834 24.63 11.4 52.5 29 -6.1 21.1
18:15 1005 29.68 834 24.63 11.5 52.7 29 -5.7 21.8
18:20 1005 29.68 834 24.63 11.3 52.4 30 -5.7 21.7
18:25 1005 29.68 834 24.63 11.5 52.8 28 -6.2 20.8
18:30 1005 29.68 834 24.63 11.6 52.9 28 -6 21.2
18:35 1005 29.68 834 24.63 11.7 53 29 -5.9 21.3
18:40 1005 29.68 834 24.63 11.6 52.8 29 -5.9 21.3
18:45 1005 29.68 834 24.63 11.5 52.7 29 -6 21.1
18:50 1005 29.68 834 24.63 11.5 52.7 29 -5.7 21.8
18:55 1004 29.65 834 24.63 11.3 52.4 30 -5.7 21.7
19:00 1004 29.65 833 24.6 11.1 52 29 -6 21.1
19:05 1004 29.65 833 24.6 11.6 52.9 28 -6.3 20.6
19:10 1004 29.65 833 24.6 11.6 52.9 28 -6.1 21
19:15 1004 29.65 833 24.6 11.5 52.7 28 -6.3 20.7
19:20 1004 29.65 833 24.6 11.6 52.9 28 -6.2 20.8
19:25 1003 29.62 833 24.6 11.6 52.8 28 -6.3 20.7
19:30 1003 29.62 833 24.6 11.6 53 28 -6.2 20.8
19:35 1003 29.62 833 24.6 11.7 53.1 27 -6.5 20.3
19:40 1003 29.62 833 24.6 11.6 52.9 28 -6.2 20.8
19:45 1003 29.62 833 24.6 11.6 52.8 28 -6.3 20.6
19:50 1003 29.62 833 24.6 11.6 52.9 28 -6.3 20.6
19:55 1003 29.62 833 24.6 11.5 52.6 28 -6.2 20.9
20:00 1003 29.62 833 24.6 11.3 52.3 28 -6.4 20.4
20:05 1003 29.62 833 24.6 11.2 52.1 30 -5.7 21.7
20:10 1003 29.62 833 24.6 10.9 51.6 31 -5.5 22
20:15 1003 29.62 833 24.6 10.5 50.9 30 -6.2 20.9
20:20 1003 29.62 832 24.57 10.1 50.2 31 -6 21.2
20:25 1003 29.62 832 24.57 10 50 30 -6.6 20.1
20:30 1003 29.62 832 24.57 10.2 50.4 30 -6.5 20.3
20:35 1003 29.62 832 24.57 10.2 50.4 29 -7 19.4
20:40 1003 29.62 832 24.57 10.1 50.3 30 -6.9 19.7
20:45 1003 29.62 832 24.57 10 50 29 -7.1 19.3
20:50 1003 29.62 832 24.57 9.8 49.6 30 -7.1 19.2
20:55 1003 29.62 832 24.57 9.7 49.4 29 -7.5 18.6
21:00 1003 29.62 832 24.57 9.7 49.5 29 -7.5 18.4
21:05 1003 29.62 832 24.57 9.7 49.4 28 -7.8 18
21:10 1003 29.62 832 24.57 9.7 49.5 29 -7.5 18.5
21:15 1003 29.62 832 24.57 9.6 49.3 29 -7.4 18.6
21:20 1003 29.62 832 24.57 9.5 49.1 29 -7.4 18.6
21:25 1003 29.62 832 24.57 9.6 49.2 29 -7.5 18.4
21:30 1002 29.59 832 24.57 9.7 49.4 30 -7.1 19.2
21:35 1002 29.59 831 24.54 9.5 49.2 29 -7.5 18.5
21:40 1002 29.59 831 24.54 9.7 49.5 28 -7.8 18
21:45 1002 29.59 831 24.54 9.9 49.7 29 -7.3 18.9
21:50 1002 29.59 831 24.54 9.8 49.6 29 -7.5 18.5
21:55 1002 29.59 831 24.54 10 50 29 -7.3 18.9
22:00 1002 29.59 831 24.54 9.8 49.6 29 -7.3 18.8
22:05 1002 29.59 831 24.54 9.8 49.6 29 -7.3 18.8
22:10 1002 29.59 831 24.54 9.7 49.4 30 -7.2 19.1
22:15 1002 29.59 832 24.57 9.5 49.2 30 -7.2 19.1
22:20 1002 29.59 832 24.57 9.5 49.1 30 -7.3 18.9
22:25 1002 29.59 832 24.57 9.6 49.4 30 -7 19.4
22:30 1002 29.59 832 24.57 9.4 48.9 31 -6.8 19.8
22:35 1002 29.59 832 24.57 9.3 48.7 32 -6.6 20.2
22:40 1002 29.59 832 24.57 9.2 48.6 32 -6.7 19.9
22:45 1003 29.62 832 24.57 9 48.3 32 -6.6 20.1
22:50 1003 29.62 832 24.57 9 48.1 33 -6.4 20.5
22:55 1003 29.62 832 24.57 9 48.1 33 -6.4 20.5
23:00 1003 29.62 832 24.57 8.9 47.9 34 -6 21.3
23:05 1003 29.62 832 24.57 8.7 47.6 34 -6.1 21
23:10 1003 29.62 833 24.6 8.6 47.5 34 -6.4 20.5
23:15 1003 29.62 833 24.6 8.7 47.6 38 -4.8 23.4
23:20 1004 29.65 833 24.6 8.1 46.6 41 -4.2 24.5
23:25 1004 29.65 833 24.6 7.6 45.6 45 -3.5 25.6
23:30 1004 29.65 833 24.6 7.1 44.8 47 -3.4 25.9
23:35 1004 29.65 834 24.63 6.8 44.2 50 -2.9 26.9
23:40 1005 29.68 834 24.63 6.4 43.5 53 -2.4 27.6
23:45 1005 29.68 834 24.63 6 42.8 57 -1.9 28.5
23:50 1005 29.68 834 24.63 5.6 42 63 -1 30.2
23:55 1005 29.68 834 24.63 4.9 40.8 79 1.5 34.7
24:00 1005 29.68 834 24.63 3.7 38.6 86 1.6 34.8